Time;durP1;ratioP1;P1;durP2;ratioP2;P2;SDS_P1;SDS_P2;PMS_P1;PMS_P2;Temp;Humidity;BMP_temperature;BMP_pressure;BME280_temperature;BME280_humidity;BME280_pressure;Samples;Min_cycle;Max_cycle;Signal;HPM_P1;HPM_P2
2023/08/21 00:01:11;;;;;;;8.32;5.25;;;;;;;;;;4972951;28;20231;-74
2023/08/21 00:03:38;;;;;;;8.35;5.60;;;;;;;;;;4972748;28;20207;-74
2023/08/21 00:06:04;;;;;;;8.55;5.30;;;;;;;;;;4972995;28;20546;-75
2023/08/21 00:08:30;;;;;;;7.82;5.63;;;;;;;;;;4972601;28;20526;-75
2023/08/21 00:10:57;;;;;;;5.80;5.30;;;;;;;;;;4972737;28;20195;-75
2023/08/21 00:13:23;;;;;;;9.82;5.85;;;;;;;;;;4972729;28;20218;-75
2023/08/21 00:15:49;;;;;;;8.35;5.43;;;;;;;;;;4972558;28;20664;-75
2023/08/21 00:18:17;;;;;;;6.43;5.80;;;;;;;;;;4972159;28;20775;-75
2023/08/21 00:20:43;;;;;;;6.40;5.88;;;;;;;;;;4972638;28;20219;-74
2023/08/21 00:23:09;;;;;;;9.45;6.28;;;;;;;;;;4972746;28;20301;-75
2023/08/21 00:25:36;;;;;;;6.20;5.60;;;;;;;;;;4972776;28;20204;-75
2023/08/21 00:28:02;;;;;;;6.28;5.63;;;;;;;;;;4972374;28;20230;-75
2023/08/21 00:30:28;;;;;;;8.93;6.05;;;;;;;;;;4972621;28;20200;-75
2023/08/21 00:32:55;;;;;;;6.75;6.13;;;;;;;;;;4972394;28;20218;-75
2023/08/21 00:35:22;;;;;;;7.38;6.63;;;;;;;;;;4972735;28;20199;-75
2023/08/21 00:37:49;;;;;;;7.68;6.90;;;;;;;;;;4972231;28;20227;-75
2023/08/21 00:40:15;;;;;;;5.90;5.43;;;;;;;;;;4972568;28;20207;-75
2023/08/21 00:42:41;;;;;;;6.32;5.70;;;;;;;;;;4972412;28;20207;-75
2023/08/21 00:45:09;;;;;;;7.68;6.20;;;;;;;;;;4972424;28;20226;-75
2023/08/21 00:47:35;;;;;;;6.43;5.82;;;;;;;;;;4972205;28;20635;-76
2023/08/21 00:50:02;;;;;;;9.48;5.75;;;;;;;;;;4974421;28;20584;-75
2023/08/21 00:52:29;;;;;;;6.72;6.03;;;;;;;;;;4975848;28;20700;-75
2023/08/21 00:54:56;;;;;;;12.27;6.38;;;;;;;;;;4975995;28;20207;-75
2023/08/21 00:57:23;;;;;;;7.68;6.13;;;;;;;;;;4975839;28;20671;-75
2023/08/21 00:59:51;;;;;;;7.38;6.13;;;;;;;;;;4975838;28;20230;-75
2023/08/21 01:02:18;;;;;;;6.53;5.93;;;;;;;;;;4975830;28;20315;-75
2023/08/21 01:04:45;;;;;;;6.53;5.93;;;;;;;;;;4975650;28;20207;-75
2023/08/21 01:07:11;;;;;;;6.38;5.82;;;;;;;;;;4975805;28;20207;-74
2023/08/21 01:09:41;;;;;;;6.43;5.82;;;;;;;;;;4975484;28;20239;-75
2023/08/21 01:12:13;;;;;;;6.60;5.55;;;;;;;;;;4975608;28;20289;-75
2023/08/21 01:14:43;;;;;;;7.65;6.13;;;;;;;;;;4975465;28;20222;-75
2023/08/21 01:17:12;;;;;;;6.47;5.93;;;;;;;;;;4975594;28;20203;-74
2023/08/21 01:19:41;;;;;;;6.70;6.10;;;;;;;;;;4975137;28;20230;-74
2023/08/21 01:22:08;;;;;;;7.38;5.75;;;;;;;;;;4975440;28;20234;-75
2023/08/21 01:24:35;;;;;;;8.20;6.28;;;;;;;;;;4975294;28;20691;-75
2023/08/21 01:27:02;;;;;;;6.43;5.95;;;;;;;;;;4975084;28;20210;-74
2023/08/21 01:29:29;;;;;;;6.47;6.05;;;;;;;;;;4975012;28;20282;-74
2023/08/21 01:31:59;;;;;;;6.43;5.82;;;;;;;;;;4975423;28;20207;-73
2023/08/21 01:34:25;;;;;;;7.47;6.43;;;;;;;;;;4975209;28;20207;-74
2023/08/21 01:36:52;;;;;;;6.70;6.10;;;;;;;;;;4975222;28;20218;-74
2023/08/21 01:39:18;;;;;;;7.53;6.03;;;;;;;;;;4975002;28;20598;-74
2023/08/21 01:41:46;;;;;;;6.55;5.95;;;;;;;;;;4975121;28;20223;-74
2023/08/21 01:44:12;;;;;;;7.47;6.18;;;;;;;;;;4975059;28;20203;-74
2023/08/21 01:46:39;;;;;;;7.10;6.45;;;;;;;;;;4974977;28;20230;-74
2023/08/21 01:49:05;;;;;;;7.68;6.55;;;;;;;;;;4974774;28;20238;-74
2023/08/21 01:51:31;;;;;;;7.57;6.22;;;;;;;;;;4974844;28;20208;-74
2023/08/21 01:53:57;;;;;;;6.80;5.93;;;;;;;;;;4974644;28;20203;-74
2023/08/21 01:56:24;;;;;;;6.85;6.07;;;;;;;;;;4974632;28;20208;-74
2023/08/21 01:58:51;;;;;;;6.65;6.03;;;;;;;;;;4974220;28;20640;-74
2023/08/21 02:01:18;;;;;;;7.45;6.13;;;;;;;;;;4973980;28;20215;-74
2023/08/21 02:03:45;;;;;;;7.93;6.03;;;;;;;;;;4974629;28;20235;-74
2023/08/21 02:06:12;;;;;;;7.10;6.40;;;;;;;;;;4974527;28;20226;-74
2023/08/21 02:08:38;;;;;;;6.50;6.00;;;;;;;;;;4974072;28;20645;-74
2023/08/21 02:11:05;;;;;;;7.45;6.07;;;;;;;;;;4974603;28;20206;-74
2023/08/21 02:13:32;;;;;;;8.05;6.63;;;;;;;;;;4974401;28;20252;-74
2023/08/21 02:16:00;;;;;;;8.35;6.30;;;;;;;;;;4974841;28;20235;-75
2023/08/21 02:18:26;;;;;;;7.43;6.35;;;;;;;;;;4974079;28;20258;-74
2023/08/21 02:20:53;;;;;;;6.80;5.93;;;;;;;;;;4974344;28;20204;-75
2023/08/21 02:23:19;;;;;;;6.78;6.18;;;;;;;;;;4974187;28;20222;-75
2023/08/21 02:25:45;;;;;;;7.00;6.40;;;;;;;;;;4974520;28;20200;-74
2023/08/21 02:28:11;;;;;;;7.53;6.20;;;;;;;;;;4974170;28;20231;-74
2023/08/21 02:30:40;;;;;;;6.82;6.28;;;;;;;;;;4974335;28;20215;-74
2023/08/21 02:33:08;;;;;;;7.50;6.47;;;;;;;;;;4974153;28;20207;-74
2023/08/21 02:35:34;;;;;;;6.60;6.00;;;;;;;;;;4973986;28;20207;-75
2023/08/21 02:38:00;;;;;;;7.88;6.63;;;;;;;;;;4973620;28;20223;-74
2023/08/21 02:40:27;;;;;;;7.32;6.72;;;;;;;;;;4973827;28;20707;-74
2023/08/21 02:42:53;;;;;;;8.27;6.82;;;;;;;;;;4973940;28;20231;-74
2023/08/21 02:45:19;;;;;;;6.70;6.18;;;;;;;;;;4973806;28;20207;-74
2023/08/21 02:47:45;;;;;;;6.85;6.35;;;;;;;;;;4973937;28;20203;-74
2023/08/21 02:50:13;;;;;;;7.47;6.60;;;;;;;;;;4973598;28;20207;-74
2023/08/21 02:52:39;;;;;;;7.88;6.25;;;;;;;;;;4973659;28;20668;-74
2023/08/21 02:55:06;;;;;;;6.93;6.20;;;;;;;;;;4973682;28;20205;-74
2023/08/21 02:57:32;;;;;;;8.93;7.20;;;;;;;;;;4973708;28;20208;-75
2023/08/21 02:59:59;;;;;;;7.28;6.63;;;;;;;;;;4973244;28;20695;-74
2023/08/21 03:02:25;;;;;;;7.60;6.80;;;;;;;;;;4973379;28;20219;-75
2023/08/21 03:04:51;;;;;;;7.70;6.93;;;;;;;;;;4973468;28;20206;-74
2023/08/21 03:07:19;;;;;;;7.38;6.32;;;;;;;;;;4973577;28;20203;-74
2023/08/21 03:09:45;;;;;;;6.88;6.38;;;;;;;;;;4972984;28;20302;-75
2023/08/21 03:12:12;;;;;;;7.72;6.57;;;;;;;;;;4972784;28;20572;-74
2023/08/21 03:14:38;;;;;;;7.57;6.90;;;;;;;;;;4973205;28;20203;-75
2023/08/21 03:17:04;;;;;;;7.53;6.88;;;;;;;;;;4973243;28;20203;-75
2023/08/21 03:19:31;;;;;;;8.55;7.13;;;;;;;;;;4972871;28;20278;-74
2023/08/21 03:21:57;;;;;;;7.63;6.78;;;;;;;;;;4973323;28;20222;-74
2023/08/21 03:24:25;;;;;;;6.93;6.50;;;;;;;;;;4973195;28;20210;-74
2023/08/21 03:26:51;;;;;;;7.65;6.97;;;;;;;;;;4973544;28;20210;-74
2023/08/21 03:29:17;;;;;;;7.85;6.75;;;;;;;;;;4973003;28;20315;-74
2023/08/21 03:31:44;;;;;;;7.05;6.45;;;;;;;;;;4973292;28;20207;-74
2023/08/21 03:34:10;;;;;;;7.55;6.70;;;;;;;;;;4972894;28;20211;-74
2023/08/21 03:36:38;;;;;;;7.55;6.75;;;;;;;;;;4972765;28;20573;-74
2023/08/21 03:39:05;;;;;;;10.15;7.50;;;;;;;;;;4972796;28;20234;-74
2023/08/21 03:41:33;;;;;;;7.68;6.88;;;;;;;;;;4972894;28;20226;-74
2023/08/21 03:43:59;;;;;;;7.47;6.78;;;;;;;;;;4972971;28;20210;-74
2023/08/21 03:46:25;;;;;;;8.00;7.20;;;;;;;;;;4972790;28;20211;-74
2023/08/21 03:48:52;;;;;;;8.95;8.05;;;;;;;;;;4972609;28;20227;-75
2023/08/21 03:51:18;;;;;;;12.20;8.07;;;;;;;;;;4972924;28;20299;-75
2023/08/21 03:53:44;;;;;;;8.95;8.00;;;;;;;;;;4973259;28;20211;-74
2023/08/21 03:56:11;;;;;;;9.23;7.57;;;;;;;;;;4972935;28;20215;-74
2023/08/21 03:58:38;;;;;;;8.88;7.50;;;;;;;;;;4972501;28;20231;-75
2023/08/21 04:01:05;;;;;;;10.57;7.82;;;;;;;;;;4972782;28;20207;-75
2023/08/21 04:03:31;;;;;;;8.32;6.88;;;;;;;;;;4972668;28;20230;-75
2023/08/21 04:05:58;;;;;;;8.40;7.57;;;;;;;;;;4973017;28;20203;-74
2023/08/21 04:08:25;;;;;;;7.55;6.95;;;;;;;;;;4972339;28;20235;-74
2023/08/21 04:10:52;;;;;;;8.18;7.35;;;;;;;;;;4972840;28;20203;-74
2023/08/21 04:13:18;;;;;;;7.78;7.07;;;;;;;;;;4972986;28;20294;-75
2023/08/21 04:15:47;;;;;;;7.65;6.95;;;;;;;;;;4972344;28;20214;-66
2023/08/21 04:18:13;;;;;;;10.60;7.43;;;;;;;;;;4972470;28;20219;-66
2023/08/21 04:20:39;;;;;;;10.40;7.50;;;;;;;;;;4972494;28;20199;-66
2023/08/21 04:23:05;;;;;;;8.07;7.47;;;;;;;;;;4972608;28;20219;-66
2023/08/21 04:25:32;;;;;;;8.98;7.53;;;;;;;;;;4975832;28;20206;-66
2023/08/21 04:27:58;;;;;;;7.82;7.22;;;;;;;;;;4976148;28;20594;-66
2023/08/21 04:30:24;;;;;;;8.20;7.43;;;;;;;;;;4976103;28;20203;-66
2023/08/21 04:32:52;;;;;;;9.23;7.32;;;;;;;;;;4976314;28;20203;-66
2023/08/21 04:35:18;;;;;;;8.23;7.53;;;;;;;;;;4976314;28;20213;-66
2023/08/21 04:37:48;;;;;;;8.95;7.25;;;;;;;;;;4975732;28;20687;-67
2023/08/21 04:40:15;;;;;;;8.05;7.25;;;;;;;;;;4976137;28;20204;-66
2023/08/21 04:42:41;;;;;;;7.97;7.20;;;;;;;;;;4975868;28;20223;-66
2023/08/21 04:45:08;;;;;;;7.40;6.70;;;;;;;;;;4975778;28;20577;-66
2023/08/21 04:47:34;;;;;;;8.48;7.78;;;;;;;;;;4975678;28;20672;-66
2023/08/21 04:50:02;;;;;;;8.27;7.60;;;;;;;;;;4975963;28;20210;-66
2023/08/21 04:52:28;;;;;;;9.02;7.60;;;;;;;;;;4975737;28;20528;-66
2023/08/21 04:54:55;;;;;;;8.02;7.22;;;;;;;;;;4975651;28;20587;-66
2023/08/21 04:57:21;;;;;;;7.75;7.07;;;;;;;;;;4975663;28;20554;-66
2023/08/21 04:59:48;;;;;;;9.80;7.55;;;;;;;;;;4975259;28;20744;-66
2023/08/21 05:02:14;;;;;;;15.05;8.18;;;;;;;;;;4975919;28;20219;-66
2023/08/21 05:04:41;;;;;;;8.68;7.82;;;;;;;;;;4975634;28;20204;-66
2023/08/21 05:07:08;;;;;;;9.32;7.75;;;;;;;;;;4975642;28;20688;-66
2023/08/21 05:09:34;;;;;;;8.75;6.82;;;;;;;;;;4975110;28;20227;-66
2023/08/21 05:12:01;;;;;;;8.35;7.60;;;;;;;;;;4975353;28;20202;-66
2023/08/21 05:14:27;;;;;;;7.75;7.03;;;;;;;;;;4975791;28;20569;-66
2023/08/21 05:16:53;;;;;;;9.65;7.30;;;;;;;;;;4975681;28;20210;-66
2023/08/21 05:19:20;;;;;;;9.00;7.22;;;;;;;;;;4974995;28;20227;-66
2023/08/21 05:21:46;;;;;;;9.85;8.05;;;;;;;;;;4975172;28;20203;-66
2023/08/21 05:24:14;;;;;;;8.50;7.70;;;;;;;;;;4975212;28;20699;-66
2023/08/21 05:26:40;;;;;;;9.18;7.78;;;;;;;;;;4975573;28;20218;-66
2023/08/21 05:29:06;;;;;;;14.65;8.70;;;;;;;;;;4975047;28;20227;-66
2023/08/21 05:31:33;;;;;;;16.95;10.05;;;;;;;;;;4975285;28;20210;-66
2023/08/21 05:33:59;;;;;;;12.18;9.63;;;;;;;;;;4975091;28;20233;-66
2023/08/21 05:36:25;;;;;;;10.43;9.32;;;;;;;;;;4974095;28;20203;-66
2023/08/21 05:38:52;;;;;;;14.05;8.85;;;;;;;;;;4974667;28;20314;-66
2023/08/21 05:41:19;;;;;;;16.13;8.85;;;;;;;;;;4974848;28;20710;-66
2023/08/21 05:43:47;;;;;;;15.85;9.02;;;;;;;;;;4974927;28;20223;-66
2023/08/21 05:46:13;;;;;;;9.68;8.70;;;;;;;;;;4974852;28;20203;-66
2023/08/21 05:48:39;;;;;;;14.82;9.85;;;;;;;;;;4974489;28;20227;-66
2023/08/21 05:51:06;;;;;;;10.85;8.60;;;;;;;;;;4974903;28;20218;-66
2023/08/21 05:53:32;;;;;;;14.07;8.88;;;;;;;;;;4971001;28;20572;-66
2023/08/21 05:55:58;;;;;;;12.38;9.15;;;;;;;;;;4968048;28;20207;-66
2023/08/21 05:58:29;;;;;;;9.52;8.52;;;;;;;;;;4968331;28;20692;-66
2023/08/21 06:00:56;;;;;;;14.00;8.73;;;;;;;;;;4968967;28;20203;-66
2023/08/21 06:03:22;;;;;;;11.38;9.02;;;;;;;;;;4968914;28;20231;-66
2023/08/21 06:05:49;;;;;;;13.63;9.13;;;;;;;;;;4968729;28;20699;-66
2023/08/21 06:08:15;;;;;;;10.60;9.45;;;;;;;;;;4967962;28;20261;-66
2023/08/21 06:10:41;;;;;;;12.55;9.57;;;;;;;;;;4968644;28;20199;-65
2023/08/21 06:13:08;;;;;;;12.25;9.25;;;;;;;;;;4968526;28;20223;-66
2023/08/21 06:15:35;;;;;;;10.50;9.52;;;;;;;;;;4968716;28;20222;-64
2023/08/21 06:18:01;;;;;;;10.85;9.32;;;;;;;;;;4966735;28;20735;-64
2023/08/21 06:20:28;;;;;;;13.25;10.43;;;;;;;;;;4964843;28;20223;-65
2023/08/21 06:22:54;;;;;;;11.00;9.43;;;;;;;;;;4965365;28;20242;-65
2023/08/21 06:25:20;;;;;;;10.40;8.30;;;;;;;;;;4965227;28;20695;-66
2023/08/21 06:27:47;;;;;;;10.57;9.48;;;;;;;;;;4963410;28;20235;-65
2023/08/21 06:30:13;;;;;;;12.35;9.27;;;;;;;;;;4966227;28;20204;-65
2023/08/21 06:32:41;;;;;;;12.73;9.02;;;;;;;;;;4966430;28;20218;-65
2023/08/21 06:35:08;;;;;;;13.48;9.40;;;;;;;;;;4966792;28;20561;-64
2023/08/21 06:37:34;;;;;;;12.23;9.48;;;;;;;;;;4967190;28;20218;-64
2023/08/21 06:40:00;;;;;;;13.85;8.77;;;;;;;;;;4966107;28;20678;-64
2023/08/21 06:42:26;;;;;;;14.18;9.10;;;;;;;;;;4966975;28;20238;-64
2023/08/21 06:44:53;;;;;;;12.90;9.07;;;;;;;;;;4966639;28;20208;-64
2023/08/21 06:47:19;;;;;;;11.68;8.60;;;;;;;;;;4966407;28;20211;-66
2023/08/21 06:49:47;;;;;;;14.05;7.93;;;;;;;;;;4966153;28;20223;-66
2023/08/21 06:52:13;;;;;;;16.90;10.50;;;;;;;;;;4966250;28;20310;-66
2023/08/21 06:54:39;;;;;;;10.73;9.20;;;;;;;;;;4966497;28;20207;-65
2023/08/21 06:57:05;;;;;;;12.57;9.15;;;;;;;;;;4965559;28;20770;-66
2023/08/21 06:59:35;;;;;;;9.93;8.93;;;;;;;;;;4966133;28;20227;-65
2023/08/21 07:02:02;;;;;;;10.43;9.35;;;;;;;;;;4966255;28;20220;-65
2023/08/21 07:04:28;;;;;;;12.32;10.23;;;;;;;;;;4966006;28;20227;-65
2023/08/21 07:06:56;;;;;;;12.57;9.88;;;;;;;;;;4966583;28;20586;-64
2023/08/21 07:09:22;;;;;;;16.88;9.52;;;;;;;;;;4965956;28;20245;-64
2023/08/21 07:11:48;;;;;;;13.20;9.70;;;;;;;;;;4965884;28;20219;-65
2023/08/21 07:14:15;;;;;;;13.20;9.75;;;;;;;;;;4965671;28;20782;-65
2023/08/21 07:16:41;;;;;;;12.80;9.50;;;;;;;;;;4965809;28;20215;-65
2023/08/21 07:19:07;;;;;;;13.43;9.32;;;;;;;;;;4965299;28;20227;-66
2023/08/21 07:21:36;;;;;;;11.63;9.80;;;;;;;;;;4965935;28;20242;-66
2023/08/21 07:24:03;;;;;;;12.20;9.00;;;;;;;;;;4966046;28;20746;-65
2023/08/21 07:26:30;;;;;;;11.30;9.98;;;;;;;;;;4965641;28;20215;-65
2023/08/21 07:28:56;;;;;;;11.48;8.75;;;;;;;;;;4965282;28;20238;-65
2023/08/21 07:31:23;;;;;;;11.00;9.25;;;;;;;;;;4965100;28;20220;-65
2023/08/21 07:33:49;;;;;;;13.00;8.95;;;;;;;;;;4966230;28;20234;-65
2023/08/21 07:36:17;;;;;;;14.77;8.25;;;;;;;;;;4966461;28;20218;-65
2023/08/21 07:38:43;;;;;;;12.68;8.18;;;;;;;;;;4966199;28;20863;-65
2023/08/21 07:41:11;;;;;;;9.75;8.45;;;;;;;;;;4965450;28;20217;-65
2023/08/21 07:43:38;;;;;;;9.18;8.00;;;;;;;;;;4966201;28;20257;-65
2023/08/21 07:46:04;;;;;;;9.85;8.98;;;;;;;;;;4965486;28;20541;-64
2023/08/21 07:48:30;;;;;;;12.50;8.55;;;;;;;;;;4965661;28;20223;-64
2023/08/21 07:50:56;;;;;;;9.15;7.57;;;;;;;;;;4966165;28;20223;-65
2023/08/21 07:53:23;;;;;;;10.20;8.00;;;;;;;;;;4965874;28;20800;-64
2023/08/21 07:55:49;;;;;;;8.93;7.80;;;;;;;;;;4965582;28;20226;-64
2023/08/21 07:58:17;;;;;;;9.57;8.63;;;;;;;;;;4964493;28;20234;-65
2023/08/21 08:00:43;;;;;;;11.48;8.48;;;;;;;;;;4969546;28;20225;-66
2023/08/21 08:03:10;;;;;;;8.93;8.02;;;;;;;;;;4969497;28;20223;-64
2023/08/21 08:05:37;;;;;;;10.18;8.07;;;;;;;;;;4969991;28;20207;-63
2023/08/21 08:08:03;;;;;;;15.95;7.95;;;;;;;;;;4969593;28;20628;-65
2023/08/21 08:10:29;;;;;;;10.90;7.60;;;;;;;;;;4968976;28;20896;-66
2023/08/21 08:12:56;;;;;;;10.13;7.50;;;;;;;;;;4969611;28;20207;-66
2023/08/21 08:15:23;;;;;;;9.90;7.13;;;;;;;;;;4969761;28;20211;-64
2023/08/21 08:17:52;;;;;;;8.50;7.40;;;;;;;;;;4968952;28;20234;-64
2023/08/21 08:20:19;;;;;;;6.90;6.30;;;;;;;;;;4968999;28;20591;-65
2023/08/21 08:22:45;;;;;;;10.82;7.05;;;;;;;;;;4969209;28;20202;-65
2023/08/21 08:25:12;;;;;;;8.40;7.53;;;;;;;;;;4969298;28;20219;-65
2023/08/21 08:27:38;;;;;;;12.23;8.38;;;;;;;;;;4968914;28;20207;-65
2023/08/21 08:30:05;;;;;;;16.33;7.70;;;;;;;;;;4969185;28;20211;-65
2023/08/21 08:32:32;;;;;;;7.55;6.75;;;;;;;;;;4968709;28;20215;-65
2023/08/21 08:35:00;;;;;;;9.18;7.70;;;;;;;;;;4968667;28;20218;-66
2023/08/21 08:37:26;;;;;;;9.80;6.85;;;;;;;;;;4969965;28;20269;-64
2023/08/21 08:39:52;;;;;;;10.35;7.82;;;;;;;;;;4968749;28;20215;-65
2023/08/21 08:42:18;;;;;;;12.15;7.75;;;;;;;;;;4968712;28;20214;-65
2023/08/21 08:44:45;;;;;;;13.75;8.13;;;;;;;;;;4968711;28;20231;-65
2023/08/21 08:47:12;;;;;;;9.52;7.97;;;;;;;;;;4968817;28;20246;-65
2023/08/21 08:49:38;;;;;;;13.65;7.95;;;;;;;;;;4968243;28;20219;-64
2023/08/21 08:52:07;;;;;;;8.43;7.30;;;;;;;;;;4968587;28;20719;-64
2023/08/21 08:54:35;;;;;;;11.82;8.07;;;;;;;;;;4968761;28;20258;-64
2023/08/21 08:57:01;;;;;;;8.02;7.43;;;;;;;;;;4968860;28;20290;-63
2023/08/21 08:59:30;;;;;;;9.48;7.30;;;;;;;;;;4967723;28;20234;-64
2023/08/21 09:01:56;;;;;;;8.05;7.32;;;;;;;;;;4968258;28;20219;-64
2023/08/21 09:04:23;;;;;;;8.38;7.53;;;;;;;;;;4968067;28;20238;-64
2023/08/21 09:06:49;;;;;;;8.50;7.60;;;;;;;;;;4968985;28;20207;-64
2023/08/21 09:09:16;;;;;;;9.05;7.25;;;;;;;;;;4968360;28;20254;-65
2023/08/21 09:11:43;;;;;;;12.20;7.22;;;;;;;;;;4968266;28;20688;-65
2023/08/21 09:14:10;;;;;;;7.63;6.85;;;;;;;;;;4968427;28;20751;-66
2023/08/21 09:16:37;;;;;;;9.10;7.28;;;;;;;;;;4968857;28;20215;-66
2023/08/21 09:19:03;;;;;;;7.30;6.70;;;;;;;;;;4967849;28;20238;-64
2023/08/21 09:21:29;;;;;;;7.53;6.72;;;;;;;;;;4968711;28;20207;-67
2023/08/21 09:23:59;;;;;;;7.75;6.70;;;;;;;;;;4967925;28;20600;-66
2023/08/21 09:26:27;;;;;;;11.27;7.50;;;;;;;;;;4968230;28;20211;-66
2023/08/21 09:28:54;;;;;;;10.43;7.20;;;;;;;;;;4968153;28;20235;-65
2023/08/21 09:31:22;;;;;;;12.75;6.97;;;;;;;;;;4968164;28;20207;-65
2023/08/21 09:33:55;;;;;;;10.65;7.00;;;;;;;;;;4964801;28;20676;-64
2023/08/21 09:36:21;;;;;;;10.82;7.18;;;;;;;;;;4968391;28;21003;-66
2023/08/21 09:38:48;;;;;;;10.13;6.50;;;;;;;;;;4967144;28;20227;-66
2023/08/21 09:41:15;;;;;;;8.77;6.40;;;;;;;;;;4968075;28;20204;-66
2023/08/21 09:43:43;;;;;;;7.97;6.68;;;;;;;;;;4968382;28;20250;-66
2023/08/21 09:46:14;;;;;;;7.78;6.88;;;;;;;;;;4967410;28;20239;-65
2023/08/21 09:48:42;;;;;;;7.38;6.20;;;;;;;;;;4967440;28;20563;-65
2023/08/21 09:51:08;;;;;;;6.65;6.05;;;;;;;;;;4967595;28;20219;-65
2023/08/21 09:53:34;;;;;;;7.50;6.10;;;;;;;;;;4967638;28;20203;-65
2023/08/21 09:56:03;;;;;;;7.03;5.03;;;;;;;;;;4967490;28;20207;-65
2023/08/21 09:58:29;;;;;;;5.82;4.45;;;;;;;;;;4967265;28;20231;-65
2023/08/21 10:00:58;;;;;;;7.22;5.05;;;;;;;;;;4966939;28;20226;-66
2023/08/21 10:03:24;;;;;;;7.55;4.20;;;;;;;;;;4967276;28;20246;-66
2023/08/21 10:05:51;;;;;;;8.52;5.07;;;;;;;;;;4967294;28;20589;-64
2023/08/21 10:08:22;;;;;;;5.80;4.95;;;;;;;;;;4967115;28;20290;-64
2023/08/21 10:10:48;;;;;;;5.00;4.50;;;;;;;;;;4967256;28;20710;-64
2023/08/21 10:13:14;;;;;;;6.43;4.53;;;;;;;;;;4967248;28;20216;-64
2023/08/21 10:15:42;;;;;;;6.13;4.90;;;;;;;;;;4967551;28;20718;-64
2023/08/21 10:18:24;;;;;;;7.05;4.78;;;;;;;;;;4967006;28;20227;-65
2023/08/21 10:20:50;;;;;;;6.18;5.30;;;;;;;;;;4966782;28;20683;-65
2023/08/21 10:23:27;;;;;;;7.05;4.90;;;;;;;;;;4966578;28;20222;-65
2023/08/21 10:25:56;;;;;;;5.13;4.68;;;;;;;;;;4967102;28;20512;-66
2023/08/21 10:28:23;;;;;;;6.10;4.82;;;;;;;;;;4967334;28;20806;-65
2023/08/21 10:30:49;;;;;;;7.22;4.85;;;;;;;;;;4966914;28;20247;-66
2023/08/21 10:33:16;;;;;;;6.35;5.07;;;;;;;;;;4966642;28;20207;-65
2023/08/21 10:35:43;;;;;;;7.78;4.80;;;;;;;;;;4966817;28;20217;-64
2023/08/21 10:38:11;;;;;;;7.88;5.28;;;;;;;;;;4966637;28;20249;-64
2023/08/21 10:40:38;;;;;;;4.97;4.55;;;;;;;;;;4966686;28;20724;-64
2023/08/21 10:43:04;;;;;;;8.52;4.78;;;;;;;;;;4966935;28;20207;-65
2023/08/21 10:45:31;;;;;;;7.20;4.80;;;;;;;;;;4966749;28;20227;-64
2023/08/21 10:47:57;;;;;;;5.20;4.72;;;;;;;;;;4966740;28;20234;-64
2023/08/21 10:50:24;;;;;;;7.03;4.63;;;;;;;;;;4966459;28;20207;-65
2023/08/21 10:52:52;;;;;;;6.78;4.90;;;;;;;;;;4966937;28;20220;-64
2023/08/21 10:55:19;;;;;;;8.07;5.00;;;;;;;;;;4966476;28;20307;-66
2023/08/21 10:57:46;;;;;;;6.05;5.20;;;;;;;;;;4966136;28;20595;-64
2023/08/21 11:00:14;;;;;;;5.68;4.88;;;;;;;;;;4966127;28;20597;-65
2023/08/21 11:02:41;;;;;;;7.15;5.03;;;;;;;;;;4966141;28;20583;-65
2023/08/21 11:05:08;;;;;;;7.45;4.82;;;;;;;;;;4966046;28;20227;-64
2023/08/21 11:07:37;;;;;;;7.22;4.53;;;;;;;;;;4966343;28;20207;-65
2023/08/21 11:10:07;;;;;;;5.80;5.22;;;;;;;;;;4965709;28;20743;-65
2023/08/21 11:12:33;;;;;;;5.55;5.05;;;;;;;;;;4965679;28;20206;-65
2023/08/21 11:14:59;;;;;;;7.93;5.07;;;;;;;;;;4966868;28;20207;-66
2023/08/21 11:17:26;;;;;;;8.65;4.95;;;;;;;;;;4966604;28;20679;-65
2023/08/21 11:19:52;;;;;;;5.03;4.63;;;;;;;;;;4965867;28;20576;-65
2023/08/21 11:22:18;;;;;;;5.13;4.72;;;;;;;;;;4966527;28;20752;-66
2023/08/21 11:24:45;;;;;;;5.93;5.43;;;;;;;;;;4966203;28;20231;-65
2023/08/21 11:27:14;;;;;;;8.15;4.60;;;;;;;;;;4965773;28;20695;-66
2023/08/21 11:29:41;;;;;;;9.48;5.30;;;;;;;;;;4966266;28;20238;-67
2023/08/21 11:32:11;;;;;;;6.22;4.97;;;;;;;;;;4966089;28;20214;-65
2023/08/21 11:34:37;;;;;;;9.07;5.18;;;;;;;;;;4964914;28;20219;-66
2023/08/21 11:37:04;;;;;;;6.95;5.10;;;;;;;;;;4966106;28;20541;-66
2023/08/21 11:39:39;;;;;;;5.35;4.95;;;;;;;;;;4965943;28;20305;-66
2023/08/21 11:42:09;;;;;;;6.72;4.90;;;;;;;;;;4965745;28;20214;-66
2023/08/21 11:44:41;;;;;;;5.70;4.50;;;;;;;;;;4965857;28;20238;-65
2023/08/21 11:47:07;;;;;;;8.85;4.72;;;;;;;;;;4966180;28;20218;-65
2023/08/21 11:49:36;;;;;;;8.98;5.15;;;;;;;;;;4965426;28;20278;-66
2023/08/21 11:52:03;;;;;;;8.20;5.10;;;;;;;;;;4965342;28;20238;-67
2023/08/21 11:54:33;;;;;;;7.25;5.10;;;;;;;;;;4964589;28;20219;-65
2023/08/21 11:56:59;;;;;;;5.07;4.80;;;;;;;;;;4965655;28;20214;-66
2023/08/21 11:59:26;;;;;;;8.88;5.07;;;;;;;;;;4965094;28;20238;-67
2023/08/21 12:01:53;;;;;;;6.40;5.05;;;;;;;;;;4965924;28;20215;-67
2023/08/21 12:04:19;;;;;;;7.68;5.30;;;;;;;;;;4965134;28;20219;-67
2023/08/21 12:06:46;;;;;;;5.85;5.07;;;;;;;;;;4966236;28;20218;-67
2023/08/21 12:09:12;;;;;;;5.50;5.00;;;;;;;;;;4965893;28;20235;-66
2023/08/21 12:11:38;;;;;;;6.10;4.80;;;;;;;;;;4965809;28;21311;-66
2023/08/21 12:14:05;;;;;;;6.28;5.45;;;;;;;;;;4966109;28;20215;-66
2023/08/21 12:16:31;;;;;;;8.38;5.20;;;;;;;;;;4965525;28;20432;-66
2023/08/21 12:18:59;;;;;;;5.88;5.05;;;;;;;;;;4965286;28;20231;-67
2023/08/21 12:21:25;;;;;;;8.40;5.32;;;;;;;;;;4965784;28;20235;-68
2023/08/21 12:23:51;;;;;;;8.60;5.40;;;;;;;;;;4965816;28;20230;-67
2023/08/21 12:26:20;;;;;;;10.07;5.20;;;;;;;;;;4965277;28;20227;-67
2023/08/21 12:28:47;;;;;;;6.15;4.78;;;;;;;;;;4965271;28;20278;-67
2023/08/21 12:31:13;;;;;;;6.65;4.88;;;;;;;;;;4965381;28;20222;-68
2023/08/21 12:33:39;;;;;;;11.40;5.72;;;;;;;;;;4964790;28;20215;-66
2023/08/21 12:36:08;;;;;;;9.63;5.15;;;;;;;;;;4965082;28;20218;-66
2023/08/21 12:38:34;;;;;;;11.75;5.50;;;;;;;;;;4965102;28;20285;-66
2023/08/21 12:41:02;;;;;;;6.72;5.10;;;;;;;;;;4965484;28;20290;-66
2023/08/21 12:43:28;;;;;;;8.90;5.13;;;;;;;;;;4964634;28;20212;-66
2023/08/21 12:45:54;;;;;;;5.82;5.20;;;;;;;;;;4967968;28;20703;-66
2023/08/21 12:48:21;;;;;;;8.77;5.30;;;;;;;;;;4968387;28;20235;-66
2023/08/21 12:50:47;;;;;;;8.15;4.70;;;;;;;;;;4969127;28;20676;-65
2023/08/21 12:53:15;;;;;;;5.40;4.78;;;;;;;;;;4968765;28;20239;-66
2023/08/21 12:55:41;;;;;;;6.45;4.93;;;;;;;;;;4968594;28;20216;-68
2023/08/21 12:58:07;;;;;;;9.00;4.68;;;;;;;;;;4968667;28;20235;-67
2023/08/21 13:00:33;;;;;;;6.85;4.50;;;;;;;;;;4968850;28;20219;-66
2023/08/21 13:03:00;;;;;;;6.15;4.50;;;;;;;;;;4968554;28;20223;-66
2023/08/21 13:05:27;;;;;;;10.07;5.10;;;;;;;;;;4968282;28;20231;-66
2023/08/21 13:07:53;;;;;;;7.40;5.05;;;;;;;;;;4968372;28;20727;-66
2023/08/21 13:10:20;;;;;;;5.25;4.53;;;;;;;;;;4968657;28;20215;-66
2023/08/21 13:12:47;;;;;;;9.25;5.13;;;;;;;;;;4968040;28;20242;-67
2023/08/21 13:15:13;;;;;;;7.32;5.35;;;;;;;;;;4968880;28;20218;-66
2023/08/21 13:17:40;;;;;;;7.07;5.60;;;;;;;;;;4968443;28;20215;-66
2023/08/21 13:20:08;;;;;;;8.98;5.03;;;;;;;;;;4967354;28;20607;-66
2023/08/21 13:22:45;;;;;;;8.80;4.57;;;;;;;;;;4968825;28;20222;-66
2023/08/21 13:25:11;;;;;;;7.15;5.18;;;;;;;;;;4968689;28;20240;-68
2023/08/21 13:27:39;;;;;;;6.47;5.00;;;;;;;;;;4968202;28;20226;-69
2023/08/21 13:30:06;;;;;;;9.82;4.75;;;;;;;;;;4967759;28;20218;-66
2023/08/21 13:32:33;;;;;;;6.00;4.65;;;;;;;;;;4967770;28;20266;-69
2023/08/21 13:34:59;;;;;;;7.70;5.10;;;;;;;;;;4966758;28;20430;-75
2023/08/21 13:37:27;;;;;;;5.47;4.50;;;;;;;;;;4967751;28;20219;-74
2023/08/21 13:39:54;;;;;;;7.05;4.50;;;;;;;;;;4968638;28;20214;-75
2023/08/21 13:42:21;;;;;;;5.45;4.50;;;;;;;;;;4968124;28;20269;-75
2023/08/21 13:44:48;;;;;;;8.63;4.55;;;;;;;;;;4967674;28;20734;-75
2023/08/21 13:47:15;;;;;;;6.45;4.43;;;;;;;;;;4967176;28;20211;-75
2023/08/21 13:49:41;;;;;;;6.82;4.30;;;;;;;;;;4967244;28;20227;-76
2023/08/21 13:52:07;;;;;;;9.95;4.72;;;;;;;;;;4967850;28;20589;-75
2023/08/21 13:54:33;;;;;;;4.70;4.07;;;;;;;;;;4968357;28;20215;-74
2023/08/21 13:57:00;;;;;;;5.22;4.53;;;;;;;;;;4967179;28;20290;-75
2023/08/21 13:59:26;;;;;;;7.97;4.35;;;;;;;;;;4968069;28;20231;-74
2023/08/21 14:01:54;;;;;;;6.18;4.40;;;;;;;;;;4974265;28;20207;-74
2023/08/21 14:04:20;;;;;;;8.20;4.60;;;;;;;;;;4973795;28;20259;-75
2023/08/21 14:06:46;;;;;;;5.38;4.35;;;;;;;;;;4972818;28;20227;-75
2023/08/21 14:09:13;;;;;;;5.88;4.50;;;;;;;;;;4972479;28;20246;-74
2023/08/21 14:11:39;;;;;;;5.10;4.60;;;;;;;;;;4973043;28;20203;-74
2023/08/21 14:14:05;;;;;;;4.97;4.38;;;;;;;;;;4973041;28;20210;-74
2023/08/21 14:16:32;;;;;;;9.52;4.35;;;;;;;;;;4972947;28;20199;-74
2023/08/21 14:18:59;;;;;;;6.65;4.30;;;;;;;;;;4973134;28;20228;-74
2023/08/21 14:21:26;;;;;;;7.43;4.63;;;;;;;;;;4974631;28;20211;-74
2023/08/21 14:23:52;;;;;;;6.20;4.78;;;;;;;;;;4974487;28;20204;-74
2023/08/21 14:26:18;;;;;;;8.07;4.45;;;;;;;;;;4974255;28;20703;-74
2023/08/21 14:28:50;;;;;;;4.70;4.30;;;;;;;;;;4974496;28;20224;-74
2023/08/21 14:31:16;;;;;;;4.47;4.00;;;;;;;;;;4974484;28;20696;-74
2023/08/21 14:33:42;;;;;;;6.38;3.97;;;;;;;;;;4974577;28;20214;-74
2023/08/21 14:36:10;;;;;;;5.38;4.65;;;;;;;;;;4974367;28;20203;-74
2023/08/21 14:38:36;;;;;;;5.85;4.53;;;;;;;;;;4973831;28;20236;-74